createdAt,value
2019-04-03T00:01:40.435Z,100866.64
2019-04-03T00:04:11.174Z,100863.17
2019-04-03T00:06:41.116Z,100864.94
2019-04-03T00:09:11.236Z,100864.06
2019-04-03T00:11:41.322Z,100860.17
2019-04-03T00:14:12.880Z,100859.34
2019-04-03T00:16:43.741Z,100857.20
2019-04-03T00:19:17.344Z,100856.78
2019-04-03T00:21:47.073Z,100860.63
2019-04-03T00:24:17.379Z,100855.45
2019-04-03T00:26:47.226Z,100861.92
2019-04-03T00:29:17.570Z,100858.50
2019-04-03T00:31:47.974Z,100861.92
2019-04-03T00:34:18.288Z,100861.92
2019-04-03T00:36:48.302Z,100860.63
2019-04-03T00:39:18.537Z,100865.40
2019-04-03T00:41:49.303Z,100861.52
2019-04-03T00:44:19.353Z,100863.27
2019-04-03T00:46:50.571Z,100870.17
2019-04-03T00:49:20.714Z,100862.42
2019-04-03T00:51:50.698Z,100861.14
2019-04-03T00:54:20.579Z,100864.18
2019-04-03T00:56:50.459Z,100863.77
2019-04-03T00:59:20.570Z,100866.35
2019-04-03T01:01:50.404Z,100865.93
2019-04-03T01:04:20.471Z,100862.50
2019-04-03T01:06:50.311Z,100865.54
2019-04-03T01:09:20.630Z,100863.82
2019-04-03T01:11:50.739Z,100864.21
2019-04-03T01:14:20.947Z,100863.38
2019-04-03T01:16:50.964Z,100863.37
2019-04-03T01:19:21.255Z,100866.83
2019-04-03T01:21:51.264Z,100864.66
2019-04-03T01:24:22.228Z,100871.14
2019-04-03T01:26:52.366Z,100867.28
2019-04-03T01:29:22.455Z,100873.30
2019-04-03T01:31:52.193Z,100872.01
2019-04-03T01:34:22.327Z,100863.82
2019-04-03T01:36:52.478Z,100863.40
2019-04-03T01:39:22.610Z,100867.28
2019-04-03T01:41:56.498Z,100868.99
2019-04-03T01:44:26.437Z,100869.88
2019-04-03T01:46:57.680Z,100869.00
2019-04-03T01:49:28.671Z,100870.30
2019-04-03T01:52:00.729Z,100865.98
2019-04-03T01:54:31.595Z,100868.57
2019-04-03T01:57:06.010Z,100872.46
2019-04-03T01:59:37.086Z,100870.71
2019-04-03T02:02:08.331Z,100870.71
2019-04-03T02:04:38.564Z,100865.98
2019-04-03T02:07:08.757Z,100869.02
2019-04-03T02:09:38.738Z,100861.69
2019-04-03T02:12:08.762Z,100866.88
2019-04-03T02:14:38.484Z,100868.16
2019-04-03T02:17:08.788Z,100871.63
2019-04-03T02:19:38.646Z,100872.05
2019-04-03T02:22:08.650Z,100875.94
2019-04-03T02:24:38.745Z,100875.52
2019-04-03T02:27:09.132Z,100873.77
2019-04-03T02:29:39.865Z,100873.33
2019-04-03T02:32:10.604Z,100867.73
2019-04-03T02:34:40.773Z,100875.92
2019-04-03T02:37:11.013Z,100874.17
2019-04-03T02:39:40.693Z,100872.88
2019-04-03T02:42:10.605Z,100872.88
2019-04-03T02:44:40.397Z,100875.89
2019-04-03T02:47:10.480Z,100874.18
2019-04-03T02:49:42.724Z,100875.05
2019-04-03T02:52:12.299Z,100875.92
2019-04-03T02:54:42.561Z,100878.51
2019-04-03T02:57:16.687Z,100875.50
2019-04-03T02:59:44.489Z,100879.80
2019-04-03T03:02:14.693Z,100878.94
2019-04-03T03:04:44.933Z,100879.81
2019-04-03T03:07:14.930Z,100879.36
2019-04-03T03:09:47.184Z,100878.06
2019-04-03T03:12:17.998Z,100868.58
2019-04-03T03:14:48.527Z,100867.70
2019-04-03T03:17:21.523Z,100875.05
2019-04-03T03:19:51.964Z,100874.59
2019-04-03T03:22:22.628Z,100868.58
2019-04-03T03:24:53.594Z,100870.30
2019-04-03T03:27:26.698Z,100868.13
2019-04-03T03:29:59.678Z,100867.67
2019-04-03T03:32:34.070Z,100871.11
2019-04-03T03:35:11.671Z,100870.66
2019-04-03T03:37:35.586Z,100871.95
2019-04-03T03:40:06.755Z,100871.08
2019-04-03T03:42:37.018Z,100875.80
2019-04-03T03:45:07.826Z,100869.29
2019-04-03T03:47:42.197Z,100870.12
2019-04-03T03:50:12.855Z,100870.53
2019-04-03T03:52:43.498Z,100872.24
2019-04-03T03:55:13.456Z,100873.07
2019-04-03T03:57:43.906Z,100876.48
2019-04-03T04:00:14.466Z,100868.66
2019-04-03T04:02:45.309Z,100869.06
2019-04-03T04:05:17.553Z,100874.20
2019-04-03T04:07:47.734Z,100875.02
2019-04-03T04:10:17.939Z,100872.81
2019-04-03T04:12:48.980Z,100870.16
2019-04-03T04:15:19.119Z,100866.64
2019-04-03T04:17:51.296Z,100872.64
2019-04-03T04:20:21.417Z,100868.25
2019-04-03T04:22:51.593Z,100870.38
2019-04-03T04:25:22.375Z,100863.82
2019-04-03T04:27:52.229Z,100872.89
2019-04-03T04:30:22.725Z,100869.78
2019-04-03T04:32:53.397Z,100871.88
2019-04-03T04:35:23.469Z,100867.02
2019-04-03T04:37:55.289Z,100874.77
2019-04-03T04:40:25.642Z,100872.55
2019-04-03T04:42:56.193Z,100868.58
2019-04-03T04:45:26.455Z,100868.54
2019-04-03T04:47:57.562Z,100869.77
2019-04-03T04:50:27.615Z,100875.81
2019-04-03T04:52:58.700Z,100880.05
2019-04-03T04:55:31.329Z,100879.58
2019-04-03T04:58:01.377Z,100882.09
2019-04-03T05:00:31.498Z,100880.30
2019-04-03T05:03:02.419Z,100884.58
2019-04-03T05:05:32.544Z,100884.08
2019-04-03T05:08:02.674Z,100883.61
2019-04-03T05:10:32.906Z,100886.12
2019-04-03T05:13:02.871Z,100886.02
2019-04-03T05:15:33.141Z,100884.23
2019-04-03T05:18:03.932Z,100891.05
2019-04-03T05:20:34.165Z,100885.79
2019-04-03T05:23:04.404Z,100882.25
2019-04-03T05:25:34.530Z,100885.18
2019-04-03T05:28:04.848Z,100884.24
2019-04-03T05:30:37.110Z,100882.92
2019-04-03T05:33:07.633Z,100887.19
2019-04-03T05:35:39.383Z,100890.13
2019-04-03T05:38:09.577Z,100882.64
2019-04-03T05:40:40.307Z,100886.87
2019-04-03T05:43:10.749Z,100885.03
2019-04-03T05:45:42.133Z,100887.11
2019-04-03T05:48:13.596Z,100885.34
2019-04-03T05:50:44.068Z,100887.03
2019-04-03T05:53:14.202Z,100887.81
2019-04-03T05:55:44.571Z,100885.58
2019-04-03T05:58:16.464Z,100889.86
2019-04-03T06:00:47.392Z,100883.73
2019-04-03T06:03:17.152Z,100897.10
2019-04-03T06:05:47.389Z,100891.34
2019-04-03T06:08:19.952Z,100896.39
2019-04-03T06:10:49.904Z,100894.92
2019-04-03T06:13:20.075Z,100894.81
2019-04-03T06:15:52.726Z,100896.80
2019-04-03T06:18:21.901Z,100891.90
2019-04-03T06:20:52.295Z,100900.47
2019-04-03T06:23:22.773Z,100897.25
2019-04-03T06:25:53.030Z,100900.73
2019-04-03T06:28:23.380Z,100896.70
2019-04-03T06:30:56.596Z,100892.34
2019-04-03T06:33:31.523Z,100898.31
2019-04-03T06:36:01.852Z,100891.39
2019-04-03T06:38:32.136Z,100898.27
2019-04-03T06:41:02.045Z,100899.03
2019-04-03T06:43:31.865Z,100898.95
2019-04-03T06:46:02.669Z,100895.27
2019-04-03T06:48:32.835Z,100894.24
2019-04-03T06:51:04.112Z,100896.27
2019-04-03T06:53:34.562Z,100899.59
2019-04-03T06:56:07.828Z,100895.67
2019-04-03T06:58:39.659Z,100898.28
2019-04-03T07:01:09.593Z,100896.08
2019-04-03T07:03:39.753Z,100893.87
2019-04-03T07:06:09.785Z,100897.73
2019-04-03T07:08:41.155Z,100894.59
2019-04-03T07:11:22.703Z,100899.67
2019-04-03T07:13:43.881Z,100895.92
2019-04-03T07:16:14.122Z,100903.57
2019-04-03T07:18:44.778Z,100903.89
2019-04-03T07:21:15.301Z,100896.08
2019-04-03T07:23:45.884Z,100898.72
2019-04-03T07:26:15.864Z,100896.95
2019-04-03T07:28:47.250Z,100889.86
2019-04-03T07:31:17.572Z,100885.34
2019-04-03T07:33:48.002Z,100886.86
2019-04-03T07:36:18.238Z,100879.73
2019-04-03T07:38:48.824Z,100883.08
2019-04-03T07:41:22.101Z,100881.61
2019-04-03T07:43:51.502Z,100882.84
2019-04-03T07:46:21.805Z,100878.83
2019-04-03T07:48:52.015Z,100876.61
2019-04-03T07:51:21.998Z,100870.52
2019-04-03T07:53:52.957Z,100881.88
2019-04-03T07:56:25.835Z,100872.69
2019-04-03T07:58:56.245Z,100867.80
2019-04-03T08:01:29.733Z,100869.87
2019-04-03T08:04:00.929Z,100866.95
2019-04-03T08:06:35.874Z,100866.48
2019-04-03T08:09:09.740Z,100857.34
2019-04-03T08:11:39.836Z,100858.23
2019-04-03T08:14:12.968Z,100862.50
2019-04-03T08:16:43.343Z,100857.27
2019-04-03T08:19:13.818Z,100853.74
2019-04-03T08:21:44.001Z,100846.95
2019-04-03T08:24:14.522Z,100847.14
2019-04-03T08:26:50.524Z,100851.25
2019-04-03T08:29:20.113Z,100841.06
2019-04-03T08:31:50.718Z,100836.96
2019-04-03T08:34:22.912Z,100837.61
2019-04-03T08:36:53.233Z,100832.61
2019-04-03T08:39:27.175Z,100818.50
2019-04-03T08:41:57.396Z,100820.41
2019-04-03T08:44:28.023Z,100821.56
2019-04-03T08:46:58.354Z,100812.59
2019-04-03T08:49:28.467Z,100815.60
2019-04-03T08:51:58.623Z,100819.16
2019-04-03T08:54:28.841Z,100818.45
2019-04-03T08:56:59.038Z,100807.31
2019-04-03T08:59:29.312Z,100813.70
2019-04-03T09:01:59.599Z,100809.18
2019-04-03T09:04:29.769Z,100808.50
2019-04-03T09:07:00.800Z,100798.14
2019-04-03T09:09:34.415Z,100801.20
2019-04-03T09:12:05.618Z,100796.19
2019-04-03T09:14:36.072Z,100793.48
2019-04-03T09:17:06.335Z,100794.55
2019-04-03T09:19:36.442Z,100790.22
2019-04-03T09:22:06.376Z,100792.18
2019-04-03T09:24:36.376Z,100794.41
2019-04-03T09:27:08.141Z,100788.46
2019-04-03T09:29:38.567Z,100795.61
2019-04-03T09:32:09.040Z,100777.36
2019-04-03T09:34:39.221Z,100778.67
2019-04-03T09:37:09.691Z,100777.98
2019-04-03T09:39:39.638Z,100779.31
2019-04-03T09:42:10.194Z,100765.69
2019-04-03T09:44:40.844Z,100776.52
2019-04-03T09:47:10.883Z,100767.84
2019-04-03T09:49:43.761Z,100771.98
2019-04-03T09:52:13.028Z,100767.32
2019-04-03T09:54:43.377Z,100765.31
2019-04-03T09:57:13.375Z,100765.66
2019-04-03T09:59:44.052Z,100752.20
2019-04-03T10:02:14.637Z,100750.38
2019-04-03T10:04:44.737Z,100750.38
2019-04-03T10:07:15.221Z,100742.16
2019-04-03T10:09:45.525Z,100743.43
2019-04-03T10:12:15.741Z,100746.09
2019-04-03T10:14:46.170Z,100745.14
2019-04-03T10:17:16.087Z,100743.38
2019-04-03T10:19:46.382Z,100741.98
2019-04-03T10:22:18.432Z,100730.89
2019-04-03T10:24:48.831Z,100738.58
2019-04-03T10:27:19.175Z,100731.09
2019-04-03T10:29:50.710Z,100731.53
2019-04-03T10:32:22.486Z,100731.67
2019-04-03T10:34:52.748Z,100729.18
2019-04-03T10:37:23.484Z,100722.02
2019-04-03T10:39:54.009Z,100716.18
2019-04-03T10:42:24.797Z,100704.43
2019-04-03T10:44:57.955Z,100705.83
2019-04-03T10:47:40.479Z,100705.45
2019-04-03T10:50:02.237Z,100707.23
2019-04-03T10:52:32.767Z,100701.31
2019-04-03T10:55:03.621Z,100693.97
2019-04-03T11:05:15.348Z,100680.54
2019-04-03T11:07:45.882Z,100686.46
2019-04-03T11:10:16.993Z,100670.78
2019-04-03T11:12:47.701Z,100684.58
2019-04-03T11:15:18.472Z,100681.70
2019-04-03T11:17:49.952Z,100667.62
2019-04-03T11:20:20.608Z,100669.55
2019-04-03T11:23:04.439Z,100666.55
2019-04-03T11:25:24.848Z,100672.23
2019-04-03T11:27:56.213Z,100668.55
2019-04-03T11:31:01.099Z,100668.89
2019-04-03T11:33:31.897Z,100661.11
2019-04-03T11:36:40.991Z,100661.25
2019-04-03T11:49:38.809Z,100659.98
2019-04-03T11:52:09.728Z,100647.02
2019-04-03T11:54:44.103Z,100640.52
2019-04-03T11:57:16.391Z,100636.58
2019-04-03T11:59:47.470Z,100630.59
2019-04-03T12:02:21.819Z,100634.32
2019-04-03T12:04:52.121Z,100637.67
2019-04-03T12:07:23.160Z,100632.42
2019-04-03T12:10:26.046Z,100626.73
2019-04-03T12:12:57.145Z,100623.02
2019-04-03T12:15:27.487Z,100613.39
2019-04-03T12:18:00.830Z,100614.82
2019-04-03T12:20:29.870Z,100615.17
2019-04-03T12:23:00.384Z,100607.94
2019-04-03T12:25:31.460Z,100609.61
2019-04-03T12:28:03.143Z,100611.53
2019-04-03T12:30:36.839Z,100601.00
2019-04-03T12:33:07.336Z,100598.98
2019-04-03T12:35:42.230Z,100600.00
2019-04-03T12:38:12.522Z,100593.47
2019-04-03T12:40:42.842Z,100590.45
2019-04-03T12:43:13.161Z,100591.30
2019-04-03T12:45:43.698Z,100581.56
2019-04-03T12:48:17.056Z,100580.67
2019-04-03T12:50:47.013Z,100584.72
2019-04-03T12:53:17.514Z,100580.75
2019-04-03T12:55:49.930Z,100581.34
2019-04-03T12:58:24.776Z,100574.66
2019-04-03T13:00:56.105Z,100584.89
2019-04-03T13:03:26.328Z,100570.30
2019-04-03T13:05:59.635Z,100559.94
2019-04-03T13:08:31.095Z,100567.22
2019-04-03T13:11:04.156Z,100560.10
2019-04-03T13:13:34.894Z,100564.86
2019-04-03T13:16:08.852Z,100564.66
2019-04-03T13:18:37.572Z,100557.02
2019-04-03T13:21:09.370Z,100564.72
2019-04-03T13:23:40.084Z,100560.42
2019-04-03T13:26:10.661Z,100560.42
2019-04-03T13:28:41.473Z,100559.97
2019-04-03T13:31:16.005Z,100565.79
2019-04-03T13:33:47.095Z,100546.89
2019-04-03T13:36:18.707Z,100555.03
2019-04-03T13:38:51.255Z,100550.77
2019-04-03T13:41:21.803Z,100545.17
2019-04-03T13:43:54.392Z,100554.05
2019-04-03T13:46:25.623Z,100549.83
2019-04-03T13:48:56.053Z,100550.99
2019-04-03T13:51:27.247Z,100541.42
2019-04-03T13:53:57.912Z,100546.63
2019-04-03T13:56:32.540Z,100539.59
2019-04-03T13:59:02.816Z,100539.24
2019-04-03T14:01:32.658Z,100542.14
2019-04-03T14:04:06.882Z,100539.55
2019-04-03T14:06:37.300Z,100540.55
2019-04-03T14:09:08.192Z,100533.04
2019-04-03T14:11:38.821Z,100529.69
2019-04-03T14:14:08.912Z,100534.08
2019-04-03T14:16:39.379Z,100529.58
2019-04-03T14:19:11.836Z,100531.41
2019-04-03T14:21:41.798Z,100525.92
2019-04-03T14:24:12.560Z,100524.27
2019-04-03T14:26:45.631Z,100527.47
2019-04-03T14:29:19.244Z,100527.14
2019-04-03T14:31:50.013Z,100515.86
2019-04-03T14:34:20.123Z,100513.44
2019-04-03T14:36:51.132Z,100511.12
2019-04-03T14:39:22.031Z,100503.81
2019-04-03T14:41:54.294Z,100508.84
2019-04-03T14:44:26.102Z,100509.89
2019-04-03T14:46:56.686Z,100503.81
2019-04-03T14:49:26.886Z,100501.41
2019-04-03T14:52:14.947Z,100501.11
2019-04-03T14:54:48.432Z,100495.09
2019-04-03T14:57:23.160Z,100495.23
2019-04-03T14:59:52.256Z,100508.37
2019-04-03T15:02:23.881Z,100506.90
2019-04-03T15:04:54.804Z,100495.16
2019-04-03T15:07:25.124Z,100500.81
2019-04-03T15:09:55.476Z,100494.08
2019-04-03T15:12:25.810Z,100498.06
2019-04-03T15:14:56.098Z,100495.34
2019-04-03T15:17:28.531Z,100503.50
2019-04-03T15:19:59.199Z,100504.30
2019-04-03T15:22:31.143Z,100500.14
2019-04-03T15:25:01.669Z,100498.00
2019-04-03T15:27:32.390Z,100492.28
2019-04-03T15:30:03.781Z,100502.81
2019-04-03T15:32:34.229Z,100496.23
2019-04-03T15:35:05.318Z,100491.84
2019-04-03T15:37:40.119Z,100486.56
2019-04-03T15:40:14.933Z,100490.31
2019-04-03T15:42:46.238Z,100488.65
2019-04-03T15:45:16.774Z,100483.26
2019-04-03T15:47:47.759Z,100484.09
2019-04-03T15:50:18.589Z,100490.06
2019-04-03T15:52:50.689Z,100486.47
2019-04-03T15:55:24.118Z,100490.20
2019-04-03T15:57:53.954Z,100485.20
2019-04-03T16:00:25.081Z,100486.31
2019-04-03T16:02:57.908Z,100486.16
2019-04-03T16:05:30.471Z,100489.80
2019-04-03T16:08:00.702Z,100485.75
2019-04-03T16:10:34.990Z,100483.41
2019-04-03T16:13:05.913Z,100488.88
2019-04-03T16:15:36.721Z,100488.62
2019-04-03T16:18:08.232Z,100486.61
2019-04-03T16:20:39.183Z,100494.20
2019-04-03T16:23:10.240Z,100487.89
2019-04-03T16:25:41.229Z,100491.55
2019-04-03T16:28:13.651Z,100488.63
2019-04-03T16:30:46.481Z,100498.48
2019-04-03T16:33:22.049Z,100494.25
2019-04-03T16:35:49.293Z,100493.77
2019-04-03T16:38:22.767Z,100495.95
2019-04-03T16:40:53.494Z,100496.91
2019-04-03T16:43:24.002Z,100503.66
2019-04-03T16:45:54.831Z,100494.63
2019-04-03T16:48:25.797Z,100500.46
2019-04-03T16:50:58.925Z,100502.33
2019-04-03T16:53:31.480Z,100500.35
2019-04-03T16:56:02.207Z,100507.45
2019-04-03T16:58:33.767Z,100497.55
2019-04-03T17:01:04.210Z,100502.86
2019-04-03T17:03:34.508Z,100504.32
2019-04-03T17:06:04.839Z,100497.87
2019-04-03T17:08:38.438Z,100506.19
2019-04-03T17:11:11.303Z,100502.82
2019-04-03T17:13:41.470Z,100503.38
2019-04-03T17:16:13.949Z,100505.16
2019-04-03T17:18:47.114Z,100499.22
2019-04-03T17:21:16.707Z,100501.11
2019-04-03T17:23:47.089Z,100506.02
2019-04-03T17:26:17.460Z,100500.87
2019-04-03T17:28:47.978Z,100501.37
2019-04-03T17:31:20.035Z,100509.22
2019-04-03T17:33:49.973Z,100503.08
2019-04-03T17:36:22.075Z,100503.20
2019-04-03T17:38:52.803Z,100503.34
2019-04-03T17:41:23.282Z,100509.05
2019-04-03T17:43:55.164Z,100504.84
2019-04-03T17:46:25.830Z,100502.38
2019-04-03T17:48:58.554Z,100500.75
2019-04-03T17:51:34.111Z,100503.84
2019-04-03T17:54:07.749Z,100502.96
2019-04-03T17:56:41.050Z,100507.86
2019-04-03T18:05:50.910Z,100503.19
2019-04-03T18:08:21.734Z,100509.59
2019-04-03T18:10:54.306Z,100509.77
2019-04-03T18:13:25.098Z,100510.86
2019-04-03T18:15:58.631Z,100507.87
2019-04-03T18:18:33.503Z,100510.95
2019-04-03T18:21:04.763Z,100510.92
2019-04-03T18:23:34.697Z,100511.36
2019-04-03T18:26:04.854Z,100509.22
2019-04-03T18:28:35.743Z,100509.25
2019-04-03T18:31:06.456Z,100510.69
2019-04-03T18:33:38.912Z,100511.33
2019-04-03T18:36:09.194Z,100505.85
2019-04-03T18:38:39.483Z,100508.05
2019-04-03T18:41:18.120Z,100510.73
2019-04-03T18:43:48.216Z,100514.67
2019-04-03T18:46:31.280Z,100510.36
2019-04-03T18:48:54.696Z,100509.83
2019-04-03T18:51:23.134Z,100516.31
2019-04-03T18:53:52.909Z,100513.30
2019-04-03T18:56:23.434Z,100515.11
2019-04-03T18:58:55.018Z,100505.98
2019-04-03T19:01:28.361Z,100513.54
2019-04-03T19:04:02.819Z,100513.14
2019-04-03T19:06:34.106Z,100514.41
2019-04-03T19:09:10.141Z,100517.48
2019-04-03T19:11:40.984Z,100516.67
2019-04-03T19:14:11.358Z,100524.23
2019-04-03T19:16:51.519Z,100523.39
2019-04-03T19:19:23.701Z,100519.11
2019-04-03T19:21:57.161Z,100521.74
2019-04-03T19:24:27.713Z,100529.16
2019-04-03T19:27:04.339Z,100521.00
2019-04-03T19:29:35.771Z,100528.48
2019-04-03T19:32:06.429Z,100528.94
2019-04-03T19:34:36.587Z,100526.87
2019-04-03T19:37:10.719Z,100525.28
2019-04-03T19:39:40.918Z,100528.41
2019-04-03T19:42:14.061Z,100527.54
2019-04-03T19:44:47.048Z,100530.64
2019-04-03T19:47:19.772Z,100530.64
2019-04-03T19:49:53.060Z,100528.91
2019-04-03T19:52:23.436Z,100530.70
2019-04-03T19:54:53.624Z,100530.45
2019-04-03T19:57:27.409Z,100529.66
2019-04-03T20:00:01.014Z,100533.22
2019-04-03T20:02:29.689Z,100535.92
2019-04-03T20:05:00.150Z,100532.01
2019-04-03T20:07:30.965Z,100537.70
2019-04-03T20:10:03.252Z,100538.66
2019-04-03T20:12:37.686Z,100537.91
2019-04-03T20:15:13.017Z,100545.39
2019-04-03T20:17:43.941Z,100550.25
2019-04-03T20:20:33.386Z,100552.06
2019-04-03T20:23:02.589Z,100550.77
2019-04-03T20:25:33.475Z,100553.83
2019-04-03T20:28:03.897Z,100556.02
2019-04-03T20:30:34.095Z,100547.83
2019-04-03T20:33:04.035Z,100549.65
2019-04-03T20:35:34.156Z,100553.66
2019-04-03T20:38:04.311Z,100552.84
2019-04-03T20:40:34.220Z,100553.38
2019-04-03T20:43:04.298Z,100557.36
2019-04-03T20:45:34.394Z,100553.55
2019-04-03T20:48:04.981Z,100550.56
2019-04-03T20:50:36.016Z,100552.33
2019-04-03T20:53:10.064Z,100558.45
2019-04-03T20:55:40.043Z,100551.56
2019-04-03T20:58:10.258Z,100552.91
2019-04-03T21:00:40.744Z,100554.64
2019-04-03T21:03:12.863Z,100553.85
2019-04-03T21:05:42.705Z,100549.59
2019-04-03T21:08:13.039Z,100553.11
2019-04-03T21:10:43.109Z,100550.98
2019-04-03T21:13:15.351Z,100548.38
2019-04-03T21:15:45.685Z,100552.36
2019-04-03T21:18:16.008Z,100550.23
2019-04-03T21:20:46.557Z,100551.17
2019-04-03T21:23:16.652Z,100547.30
2019-04-03T21:25:46.393Z,100551.19
2019-04-03T21:28:16.527Z,100551.66
2019-04-03T21:30:49.180Z,100548.20
2019-04-03T21:33:19.482Z,100549.99
2019-04-03T21:35:57.202Z,100544.81
2019-04-03T21:38:29.281Z,100545.73
2019-04-03T21:40:59.844Z,100547.55
2019-04-03T21:43:30.469Z,100549.77
2019-04-03T21:46:02.622Z,100548.00
2019-04-03T21:48:32.434Z,100540.69
2019-04-03T21:51:02.901Z,100542.45
2019-04-03T21:53:33.222Z,100540.36
2019-04-03T21:56:05.618Z,100543.41
2019-04-03T21:58:35.840Z,100549.07
2019-04-03T22:01:26.183Z,100544.80
2019-04-03T22:03:56.036Z,100543.55
2019-04-03T22:06:27.669Z,100545.77
2019-04-03T22:09:00.468Z,100543.66
2019-04-03T22:11:30.380Z,100543.70
2019-04-03T22:14:00.748Z,100544.63
2019-04-03T22:16:30.624Z,100543.86
2019-04-03T22:19:01.571Z,100536.52
2019-04-03T22:21:32.595Z,100542.59
2019-04-03T22:24:03.152Z,100540.50
2019-04-03T22:26:33.062Z,100537.94
2019-04-03T22:29:03.512Z,100544.08
2019-04-03T22:31:33.815Z,100548.48
2019-04-03T22:34:04.049Z,100541.20
2019-04-03T22:36:34.272Z,100545.55
2019-04-03T22:39:06.031Z,100549.45
2019-04-03T22:41:37.418Z,100546.86
2019-04-03T22:44:07.661Z,100545.16
2019-04-03T22:46:37.971Z,100545.63
2019-04-03T22:49:07.961Z,100541.75
2019-04-03T22:51:38.222Z,100543.05
2019-04-03T22:54:08.154Z,100540.90
2019-04-03T22:56:38.094Z,100542.69
2019-04-03T22:59:08.353Z,100541.41
2019-04-03T23:01:38.294Z,100542.30
2019-04-03T23:04:08.091Z,100542.72
2019-04-03T23:06:37.922Z,100543.19
2019-04-03T23:09:08.448Z,100540.54
2019-04-03T23:11:38.386Z,100544.02
2019-04-03T23:14:08.518Z,100540.19
2019-04-03T23:16:38.334Z,100538.04
2019-04-03T23:19:08.391Z,100539.34
2019-04-03T23:21:38.536Z,100536.75
2019-04-03T23:24:08.616Z,100537.22
2019-04-03T23:26:38.826Z,100540.67
2019-04-03T23:29:08.851Z,100536.36
2019-04-03T23:31:39.019Z,100536.84
2019-04-03T23:34:08.966Z,100540.29
2019-04-03T23:36:39.285Z,100530.79
2019-04-03T23:39:09.491Z,100532.97
2019-04-03T23:41:39.714Z,100541.60
2019-04-03T23:44:10.961Z,100533.86
2019-04-03T23:46:41.679Z,100536.91
2019-04-03T23:49:11.554Z,100533.44
2019-04-03T23:51:41.525Z,100528.30
2019-04-03T23:54:11.487Z,100531.73
2019-04-03T23:56:41.404Z,100534.30
2019-04-03T23:59:13.148Z,100531.72
